sensor_id;sensor_type;location;lat;lon;timestamp;temperature;humidity
21031;DHT22;61072;47.808;7.636;2023-07-08T05:37:33;20.70;99.90
21031;DHT22;61072;47.808;7.636;2023-07-08T05:40:00;20.70;99.90
21031;DHT22;61072;47.808;7.636;2023-07-08T05:42:29;20.70;99.90
21031;DHT22;61072;47.808;7.636;2023-07-08T05:44:56;20.60;99.90
21031;DHT22;61072;47.808;7.636;2023-07-08T05:47:23;20.60;99.90
21031;DHT22;61072;47.808;7.636;2023-07-08T05:49:49;20.50;99.90
21031;DHT22;61072;47.808;7.636;2023-07-08T05:52:16;20.50;99.90
21031;DHT22;61072;47.808;7.636;2023-07-08T05:54:43;20.40;99.90
21031;DHT22;61072;47.808;7.636;2023-07-08T05:57:11;20.40;99.90
21031;DHT22;61072;47.808;7.636;2023-07-08T05:59:38;20.30;99.90
21031;DHT22;61072;47.808;7.636;2023-07-08T06:02:11;20.20;99.90
21031;DHT22;61072;47.808;7.636;2023-07-08T06:04:39;20.20;99.90
21031;DHT22;61072;47.808;7.636;2023-07-08T06:07:06;20.20;99.90
21031;DHT22;61072;47.808;7.636;2023-07-08T06:09:33;20.20;99.90
21031;DHT22;61072;47.808;7.636;2023-07-08T06:12:00;20.20;99.90
21031;DHT22;61072;47.808;7.636;2023-07-08T06:14:28;20.30;99.90
21031;DHT22;61072;47.808;7.636;2023-07-08T06:16:55;20.30;99.90
21031;DHT22;61072;47.808;7.636;2023-07-08T06:19:22;20.40;99.90
21031;DHT22;61072;47.808;7.636;2023-07-08T06:21:48;20.40;99.90
21031;DHT22;61072;47.808;7.636;2023-07-08T06:24:15;20.40;99.90
21031;DHT22;61072;47.808;7.636;2023-07-08T06:26:42;20.50;99.90
21031;DHT22;61072;47.808;7.636;2023-07-08T06:29:09;20.60;99.90
21031;DHT22;61072;47.808;7.636;2023-07-08T06:31:35;20.60;99.90
21031;DHT22;61072;47.808;7.636;2023-07-08T06:34:02;20.70;99.90
21031;DHT22;61072;47.808;7.636;2023-07-08T06:36:31;20.80;99.90
21031;DHT22;61072;47.808;7.636;2023-07-08T06:38:58;20.90;99.90
21031;DHT22;61072;47.808;7.636;2023-07-08T06:41:24;20.90;99.90
21031;DHT22;61072;47.808;7.636;2023-07-08T06:43:51;21.00;99.90
21031;DHT22;61072;47.808;7.636;2023-07-08T06:46:19;21.10;99.90
21031;DHT22;61072;47.808;7.636;2023-07-08T06:48:46;21.20;99.90
21031;DHT22;61072;47.808;7.636;2023-07-08T06:51:13;21.20;99.90
21031;DHT22;61072;47.808;7.636;2023-07-08T06:53:40;21.30;99.90
21031;DHT22;61072;47.808;7.636;2023-07-08T06:56:06;21.30;99.90
21031;DHT22;61072;47.808;7.636;2023-07-08T06:58:33;21.30;99.90
21031;DHT22;61072;47.808;7.636;2023-07-08T07:01:00;21.30;99.90
21031;DHT22;61072;47.808;7.636;2023-07-08T07:03:27;21.40;99.90
21031;DHT22;61072;47.808;7.636;2023-07-08T07:05:54;21.50;99.90
21031;DHT22;61072;47.808;7.636;2023-07-08T07:08:21;21.50;99.90
21031;DHT22;61072;47.808;7.636;2023-07-08T07:10:48;21.60;99.90
21031;DHT22;61072;47.808;7.636;2023-07-08T07:13:15;21.60;99.90
21031;DHT22;61072;47.808;7.636;2023-07-08T07:15:42;21.70;99.90
21031;DHT22;61072;47.808;7.636;2023-07-08T07:18:08;21.90;99.90
21031;DHT22;61072;47.808;7.636;2023-07-08T07:20:37;21.90;99.90
21031;DHT22;61072;47.808;7.636;2023-07-08T07:23:04;22.00;99.90
21031;DHT22;61072;47.808;7.636;2023-07-08T07:25:31;22.10;99.90
21031;DHT22;61072;47.808;7.636;2023-07-08T07:27:58;22.20;99.90
21031;DHT22;61072;47.808;7.636;2023-07-08T07:30:25;22.30;99.90
21031;DHT22;61072;47.808;7.636;2023-07-08T07:32:52;22.40;99.90
21031;DHT22;61072;47.808;7.636;2023-07-08T07:35:19;22.50;99.90
21031;DHT22;61072;47.808;7.636;2023-07-08T07:37:45;22.60;99.90
21031;DHT22;61072;47.808;7.636;2023-07-08T07:40:13;22.70;99.90
21031;DHT22;61072;47.808;7.636;2023-07-08T07:42:43;22.80;99.90
21031;DHT22;61072;47.808;7.636;2023-07-08T07:45:11;22.90;99.90
21031;DHT22;61072;47.808;7.636;2023-07-08T07:47:38;23.00;99.90
21031;DHT22;61072;47.808;7.636;2023-07-08T07:50:07;23.10;99.90
21031;DHT22;61072;47.808;7.636;2023-07-08T07:52:34;23.20;99.90
21031;DHT22;61072;47.808;7.636;2023-07-08T07:55:03;23.20;99.90
21031;DHT22;61072;47.808;7.636;2023-07-08T07:57:30;23.30;99.90
21031;DHT22;61072;47.808;7.636;2023-07-08T07:59:56;23.40;99.90
21031;DHT22;61072;47.808;7.636;2023-07-08T08:02:23;23.50;99.90
21031;DHT22;61072;47.808;7.636;2023-07-08T08:04:50;23.60;99.90
21031;DHT22;61072;47.808;7.636;2023-07-08T08:07:17;23.70;99.90
21031;DHT22;61072;47.808;7.636;2023-07-08T08:09:44;23.90;99.90
21031;DHT22;61072;47.808;7.636;2023-07-08T08:12:11;24.00;99.90
21031;DHT22;61072;47.808;7.636;2023-07-08T08:14:38;24.10;99.90
21031;DHT22;61072;47.808;7.636;2023-07-08T08:17:06;24.20;99.90
21031;DHT22;61072;47.808;7.636;2023-07-08T08:19:33;24.30;99.90
21031;DHT22;61072;47.808;7.636;2023-07-08T08:21:59;24.40;99.90
21031;DHT22;61072;47.808;7.636;2023-07-08T08:24:26;24.50;99.90
21031;DHT22;61072;47.808;7.636;2023-07-08T08:26:54;24.60;99.90
21031;DHT22;61072;47.808;7.636;2023-07-08T08:29:21;24.80;99.90
21031;DHT22;61072;47.808;7.636;2023-07-08T08:31:47;24.90;99.90
21031;DHT22;61072;47.808;7.636;2023-07-08T08:34:14;25.00;99.90
21031;DHT22;61072;47.808;7.636;2023-07-08T08:36:41;25.20;99.90
21031;DHT22;61072;47.808;7.636;2023-07-08T08:39:09;25.30;99.90
21031;DHT22;61072;47.808;7.636;2023-07-08T08:41:37;25.30;99.90
21031;DHT22;61072;47.808;7.636;2023-07-08T08:44:06;25.40;99.90
21031;DHT22;61072;47.808;7.636;2023-07-08T08:46:51;25.60;99.90
21031;DHT22;61072;47.808;7.636;2023-07-08T08:51:49;25.70;99.90
21031;DHT22;61072;47.808;7.636;2023-07-08T08:54:16;25.80;99.90
21031;DHT22;61072;47.808;7.636;2023-07-08T08:56:53;25.90;99.90
21031;DHT22;61072;47.808;7.636;2023-07-08T09:02:00;26.00;99.90
21031;DHT22;61072;47.808;7.636;2023-07-08T09:04:34;26.10;99.90
21031;DHT22;61072;47.808;7.636;2023-07-08T09:07:08;26.10;99.90
21031;DHT22;61072;47.808;7.636;2023-07-08T09:09:46;26.20;99.90
21031;DHT22;61072;47.808;7.636;2023-07-08T09:12:24;26.20;99.90
21031;DHT22;61072;47.808;7.636;2023-07-08T09:14:51;26.20;99.90
21031;DHT22;61072;47.808;7.636;2023-07-08T09:17:28;26.30;99.90
21031;DHT22;61072;47.808;7.636;2023-07-08T09:27:47;26.40;99.90
21031;DHT22;61072;47.808;7.636;2023-07-08T09:30:19;26.50;99.90
21031;DHT22;61072;47.808;7.636;2023-07-08T09:32:50;26.50;99.90
21031;DHT22;61072;47.808;7.636;2023-07-08T09:35:22;26.50;99.90
21031;DHT22;61072;47.808;7.636;2023-07-08T09:37:50;26.60;99.90
21031;DHT22;61072;47.808;7.636;2023-07-08T09:42:46;26.80;99.90
21031;DHT22;61072;47.808;7.636;2023-07-08T09:45:23;26.90;99.90
21031;DHT22;61072;47.808;7.636;2023-07-08T09:47:55;27.00;99.90
21031;DHT22;61072;47.808;7.636;2023-07-08T09:50:27;27.00;99.90
21031;DHT22;61072;47.808;7.636;2023-07-08T09:52:56;27.00;99.90
21031;DHT22;61072;47.808;7.636;2023-07-08T09:55:25;27.00;99.90
21031;DHT22;61072;47.808;7.636;2023-07-08T09:57:53;27.00;99.90
21031;DHT22;61072;47.808;7.636;2023-07-08T10:00:31;26.90;99.90
21031;DHT22;61072;47.808;7.636;2023-07-08T10:03:20;26.80;99.90
21031;DHT22;61072;47.808;7.636;2023-07-08T10:05:49;26.80;99.90
21031;DHT22;61072;47.808;7.636;2023-07-08T10:08:22;26.80;99.90
21031;DHT22;61072;47.808;7.636;2023-07-08T10:11:04;26.80;99.90
21031;DHT22;61072;47.808;7.636;2023-07-08T10:13:42;26.90;99.90
21031;DHT22;61072;47.808;7.636;2023-07-08T10:16:12;27.00;99.90
21031;DHT22;61072;47.808;7.636;2023-07-08T10:18:40;27.10;99.90
21031;DHT22;61072;47.808;7.636;2023-07-08T10:21:13;27.20;99.90
21031;DHT22;61072;47.808;7.636;2023-07-08T10:23:54;27.30;99.90
21031;DHT22;61072;47.808;7.636;2023-07-08T10:26:33;27.30;99.90
21031;DHT22;61072;47.808;7.636;2023-07-08T10:31:43;27.40;99.90
21031;DHT22;61072;47.808;7.636;2023-07-08T10:34:39;27.40;99.90
21031;DHT22;61072;47.808;7.636;2023-07-08T10:37:22;27.50;99.90
21031;DHT22;61072;47.808;7.636;2023-07-08T10:43:02;27.60;99.90
21031;DHT22;61072;47.808;7.636;2023-07-08T10:53:41;28.00;99.90
21031;DHT22;61072;47.808;7.636;2023-07-08T10:56:19;28.00;99.90
21031;DHT22;61072;47.808;7.636;2023-07-08T11:01:48;28.00;99.90
21031;DHT22;61072;47.808;7.636;2023-07-08T11:10:27;28.20;99.90
21031;DHT22;61072;47.808;7.636;2023-07-08T11:13:03;28.30;99.90
21031;DHT22;61072;47.808;7.636;2023-07-08T11:15:51;28.30;99.90
21031;DHT22;61072;47.808;7.636;2023-07-08T11:20:57;28.40;99.90
21031;DHT22;61072;47.808;7.636;2023-07-08T11:23:35;28.40;99.90
21031;DHT22;61072;47.808;7.636;2023-07-08T11:28:51;28.50;99.90
21031;DHT22;61072;47.808;7.636;2023-07-08T11:31:18;28.50;99.90
21031;DHT22;61072;47.808;7.636;2023-07-08T11:33:45;28.70;99.90
21031;DHT22;61072;47.808;7.636;2023-07-08T11:36:14;28.80;99.90
21031;DHT22;61072;47.808;7.636;2023-07-08T11:38:54;28.90;99.90
21031;DHT22;61072;47.808;7.636;2023-07-08T11:41:23;28.90;99.90
21031;DHT22;61072;47.808;7.636;2023-07-08T11:43:56;29.00;99.90
21031;DHT22;61072;47.808;7.636;2023-07-08T11:46:28;29.00;99.90
21031;DHT22;61072;47.808;7.636;2023-07-08T11:49:03;28.90;99.90
21031;DHT22;61072;47.808;7.636;2023-07-08T11:51:36;28.90;99.90
21031;DHT22;61072;47.808;7.636;2023-07-08T11:57:16;28.80;99.90
21031;DHT22;61072;47.808;7.636;2023-07-08T11:59:43;28.70;99.90
21031;DHT22;61072;47.808;7.636;2023-07-08T12:02:17;28.70;99.90
21031;DHT22;61072;47.808;7.636;2023-07-08T12:05:53;28.60;99.90
21031;DHT22;61072;47.808;7.636;2023-07-08T12:07:56;28.50;99.90
21031;DHT22;61072;47.808;7.636;2023-07-08T12:10:34;28.50;99.90
21031;DHT22;61072;47.808;7.636;2023-07-08T12:13:02;28.40;99.90
21031;DHT22;61072;47.808;7.636;2023-07-08T12:15:31;28.30;99.90
21031;DHT22;61072;47.808;7.636;2023-07-08T12:20:46;28.20;99.90
21031;DHT22;61072;47.808;7.636;2023-07-08T12:23:22;28.10;99.90
21031;DHT22;61072;47.808;7.636;2023-07-08T12:25:50;28.00;99.90
21031;DHT22;61072;47.808;7.636;2023-07-08T12:28:19;28.00;99.90
21031;DHT22;61072;47.808;7.636;2023-07-08T12:30:47;28.00;99.90
21031;DHT22;61072;47.808;7.636;2023-07-08T12:33:29;28.00;99.90
21031;DHT22;61072;47.808;7.636;2023-07-08T12:35:57;28.00;99.90
21031;DHT22;61072;47.808;7.636;2023-07-08T12:38:32;28.00;99.90
21031;DHT22;61072;47.808;7.636;2023-07-08T12:41:02;28.00;99.90
21031;DHT22;61072;47.808;7.636;2023-07-08T12:43:31;27.90;99.90
21031;DHT22;61072;47.808;7.636;2023-07-08T12:45:58;27.90;99.90
21031;DHT22;61072;47.808;7.636;2023-07-08T12:48:25;27.90;99.90
21031;DHT22;61072;47.808;7.636;2023-07-08T12:50:57;27.90;99.90
21031;DHT22;61072;47.808;7.636;2023-07-08T12:53:25;27.80;99.90
21031;DHT22;61072;47.808;7.636;2023-07-08T12:55:54;27.80;99.90
21031;DHT22;61072;47.808;7.636;2023-07-08T12:58:25;27.80;99.90
21031;DHT22;61072;47.808;7.636;2023-07-08T13:00:55;27.80;99.90
21031;DHT22;61072;47.808;7.636;2023-07-08T13:03:26;27.70;99.90
21031;DHT22;61072;47.808;7.636;2023-07-08T13:05:55;27.80;99.90
21031;DHT22;61072;47.808;7.636;2023-07-08T13:08:24;27.80;99.90
21031;DHT22;61072;47.808;7.636;2023-07-08T13:10:56;27.80;99.90
21031;DHT22;61072;47.808;7.636;2023-07-08T13:13:36;27.70;99.90
21031;DHT22;61072;47.808;7.636;2023-07-08T13:16:04;27.70;99.90
21031;DHT22;61072;47.808;7.636;2023-07-08T13:18:33;27.70;99.90
21031;DHT22;61072;47.808;7.636;2023-07-08T13:21:01;27.70;99.90
21031;DHT22;61072;47.808;7.636;2023-07-08T13:23:29;27.70;99.90
21031;DHT22;61072;47.808;7.636;2023-07-08T13:25:56;27.70;99.90
21031;DHT22;61072;47.808;7.636;2023-07-08T13:28:27;27.70;99.90
21031;DHT22;61072;47.808;7.636;2023-07-08T13:31:00;27.70;99.90
21031;DHT22;61072;47.808;7.636;2023-07-08T13:33:33;27.70;99.90
21031;DHT22;61072;47.808;7.636;2023-07-08T13:36:04;27.70;99.90
21031;DHT22;61072;47.808;7.636;2023-07-08T13:38:34;27.80;99.90
21031;DHT22;61072;47.808;7.636;2023-07-08T13:41:03;27.70;99.90
21031;DHT22;61072;47.808;7.636;2023-07-08T13:43:32;27.80;99.90
21031;DHT22;61072;47.808;7.636;2023-07-08T13:46:00;27.70;99.90
21031;DHT22;61072;47.808;7.636;2023-07-08T13:48:35;27.80;99.90
21031;DHT22;61072;47.808;7.636;2023-07-08T13:51:19;27.80;99.90
21031;DHT22;61072;47.808;7.636;2023-07-08T13:53:52;27.80;99.90
21031;DHT22;61072;47.808;7.636;2023-07-08T13:56:24;27.80;99.90
21031;DHT22;61072;47.808;7.636;2023-07-08T13:59:00;27.80;99.90
21031;DHT22;61072;47.808;7.636;2023-07-08T14:01:27;27.80;99.90
21031;DHT22;61072;47.808;7.636;2023-07-08T14:03:56;27.80;99.90
21031;DHT22;61072;47.808;7.636;2023-07-08T14:06:25;27.90;99.90
21031;DHT22;61072;47.808;7.636;2023-07-08T14:08:55;27.90;99.90
21031;DHT22;61072;47.808;7.636;2023-07-08T14:11:23;27.90;99.90
21031;DHT22;61072;47.808;7.636;2023-07-08T14:13:50;27.90;99.90
21031;DHT22;61072;47.808;7.636;2023-07-08T14:16:29;27.90;99.90
21031;DHT22;61072;47.808;7.636;2023-07-08T14:18:57;27.90;99.90
21031;DHT22;61072;47.808;7.636;2023-07-08T14:21:25;28.00;99.90
21031;DHT22;61072;47.808;7.636;2023-07-08T14:23:51;28.00;99.90
21031;DHT22;61072;47.808;7.636;2023-07-08T14:26:18;28.00;99.90
21031;DHT22;61072;47.808;7.636;2023-07-08T14:28:45;28.00;99.90
21031;DHT22;61072;47.808;7.636;2023-07-08T14:31:15;28.00;99.90
21031;DHT22;61072;47.808;7.636;2023-07-08T14:33:43;28.10;99.90
21031;DHT22;61072;47.808;7.636;2023-07-08T14:36:11;28.10;99.90
21031;DHT22;61072;47.808;7.636;2023-07-08T14:38:38;28.20;99.90
21031;DHT22;61072;47.808;7.636;2023-07-08T14:41:05;28.10;99.90
21031;DHT22;61072;47.808;7.636;2023-07-08T14:43:32;28.20;99.90
21031;DHT22;61072;47.808;7.636;2023-07-08T14:46:02;28.20;99.90
21031;DHT22;61072;47.808;7.636;2023-07-08T14:48:31;28.20;99.90
21031;DHT22;61072;47.808;7.636;2023-07-08T14:50:58;28.20;99.90
21031;DHT22;61072;47.808;7.636;2023-07-08T14:53:26;28.20;99.90
21031;DHT22;61072;47.808;7.636;2023-07-08T14:55:54;28.20;99.90
21031;DHT22;61072;47.808;7.636;2023-07-08T14:58:32;28.30;99.90
21031;DHT22;61072;47.808;7.636;2023-07-08T15:01:01;28.20;99.90
21031;DHT22;61072;47.808;7.636;2023-07-08T15:03:34;28.30;99.90
21031;DHT22;61072;47.808;7.636;2023-07-08T15:06:01;28.30;99.90
21031;DHT22;61072;47.808;7.636;2023-07-08T15:08:27;28.30;99.90
21031;DHT22;61072;47.808;7.636;2023-07-08T15:10:54;28.40;99.90
21031;DHT22;61072;47.808;7.636;2023-07-08T15:13:24;28.40;99.90
21031;DHT22;61072;47.808;7.636;2023-07-08T15:15:52;28.40;99.90
21031;DHT22;61072;47.808;7.636;2023-07-08T15:18:20;28.40;99.90
21031;DHT22;61072;47.808;7.636;2023-07-08T15:20:47;28.40;99.90
21031;DHT22;61072;47.808;7.636;2023-07-08T15:23:13;28.40;99.90
21031;DHT22;61072;47.808;7.636;2023-07-08T15:25:43;28.40;99.90
21031;DHT22;61072;47.808;7.636;2023-07-08T15:28:49;28.40;99.90
21031;DHT22;61072;47.808;7.636;2023-07-08T15:31:20;28.40;99.90
21031;DHT22;61072;47.808;7.636;2023-07-08T15:33:47;28.40;99.90
21031;DHT22;61072;47.808;7.636;2023-07-08T15:36:14;28.40;99.90
21031;DHT22;61072;47.808;7.636;2023-07-08T15:38:41;28.40;99.90
21031;DHT22;61072;47.808;7.636;2023-07-08T15:41:20;28.40;99.90
21031;DHT22;61072;47.808;7.636;2023-07-08T15:43:49;28.50;99.90
21031;DHT22;61072;47.808;7.636;2023-07-08T15:46:16;28.50;99.90
21031;DHT22;61072;47.808;7.636;2023-07-08T15:48:43;28.50;99.90
21031;DHT22;61072;47.808;7.636;2023-07-08T15:51:16;28.50;99.90
21031;DHT22;61072;47.808;7.636;2023-07-08T15:53:44;28.50;99.90
21031;DHT22;61072;47.808;7.636;2023-07-08T15:56:14;28.50;99.90
21031;DHT22;61072;47.808;7.636;2023-07-08T15:58:43;28.50;99.90
21031;DHT22;61072;47.808;7.636;2023-07-08T16:01:20;28.50;99.90
21031;DHT22;61072;47.808;7.636;2023-07-08T16:03:48;28.50;99.90
21031;DHT22;61072;47.808;7.636;2023-07-08T16:06:16;28.50;99.90
21031;DHT22;61072;47.808;7.636;2023-07-08T16:08:44;28.60;99.90
21031;DHT22;61072;47.808;7.636;2023-07-08T16:11:24;28.60;99.90
21031;DHT22;61072;47.808;7.636;2023-07-08T16:13:54;28.60;99.90
21031;DHT22;61072;47.808;7.636;2023-07-08T16:16:21;28.60;99.90
21031;DHT22;61072;47.808;7.636;2023-07-08T16:18:49;28.60;99.90
21031;DHT22;61072;47.808;7.636;2023-07-08T16:21:16;28.60;99.90
21031;DHT22;61072;47.808;7.636;2023-07-08T16:23:43;28.60;99.90
21031;DHT22;61072;47.808;7.636;2023-07-08T16:26:12;28.60;99.90
21031;DHT22;61072;47.808;7.636;2023-07-08T16:28:44;28.60;99.90
21031;DHT22;61072;47.808;7.636;2023-07-08T16:31:16;28.60;99.90
21031;DHT22;61072;47.808;7.636;2023-07-08T16:33:44;28.60;99.90
21031;DHT22;61072;47.808;7.636;2023-07-08T16:36:16;28.60;99.90
21031;DHT22;61072;47.808;7.636;2023-07-08T16:38:44;28.70;99.90
21031;DHT22;61072;47.808;7.636;2023-07-08T16:41:16;28.70;99.90
21031;DHT22;61072;47.808;7.636;2023-07-08T16:43:43;28.70;99.90
21031;DHT22;61072;47.808;7.636;2023-07-08T16:46:10;28.70;99.90
21031;DHT22;61072;47.808;7.636;2023-07-08T16:48:38;28.70;99.90
21031;DHT22;61072;47.808;7.636;2023-07-08T16:51:16;28.70;99.90
21031;DHT22;61072;47.808;7.636;2023-07-08T16:53:44;28.70;99.90
21031;DHT22;61072;47.808;7.636;2023-07-08T16:56:11;28.70;99.90
21031;DHT22;61072;47.808;7.636;2023-07-08T16:58:39;28.70;99.90
21031;DHT22;61072;47.808;7.636;2023-07-08T17:01:14;28.70;99.90
21031;DHT22;61072;47.808;7.636;2023-07-08T17:03:44;28.70;99.90
21031;DHT22;61072;47.808;7.636;2023-07-08T17:06:11;28.70;99.90
21031;DHT22;61072;47.808;7.636;2023-07-08T17:08:40;28.70;99.90
21031;DHT22;61072;47.808;7.636;2023-07-08T17:11:06;28.70;99.90
21031;DHT22;61072;47.808;7.636;2023-07-08T17:13:33;28.70;99.90
21031;DHT22;61072;47.808;7.636;2023-07-08T17:16:00;28.70;99.90
21031;DHT22;61072;47.808;7.636;2023-07-08T17:18:27;28.70;99.90
21031;DHT22;61072;47.808;7.636;2023-07-08T17:20:59;28.70;99.90
21031;DHT22;61072;47.808;7.636;2023-07-08T17:23:27;28.70;99.90
21031;DHT22;61072;47.808;7.636;2023-07-08T17:25:54;28.70;99.90
21031;DHT22;61072;47.808;7.636;2023-07-08T17:28:20;28.70;99.90
21031;DHT22;61072;47.808;7.636;2023-07-08T17:30:50;28.70;99.90
21031;DHT22;61072;47.808;7.636;2023-07-08T17:33:18;28.70;99.90
21031;DHT22;61072;47.808;7.636;2023-07-08T17:35:46;28.70;99.90
21031;DHT22;61072;47.808;7.636;2023-07-08T17:38:21;28.60;99.90
21031;DHT22;61072;47.808;7.636;2023-07-08T17:40:48;28.60;99.90
21031;DHT22;61072;47.808;7.636;2023-07-08T17:43:15;28.60;99.90
21031;DHT22;61072;47.808;7.636;2023-07-08T17:45:43;28.60;99.90
21031;DHT22;61072;47.808;7.636;2023-07-08T17:48:24;28.60;99.90
21031;DHT22;61072;47.808;7.636;2023-07-08T17:50:52;28.60;99.90
21031;DHT22;61072;47.808;7.636;2023-07-08T17:53:19;28.50;99.90
21031;DHT22;61072;47.808;7.636;2023-07-08T17:55:49;28.50;99.90
21031;DHT22;61072;47.808;7.636;2023-07-08T17:58:16;28.50;99.90
21031;DHT22;61072;47.808;7.636;2023-07-08T18:00:46;28.40;99.90
21031;DHT22;61072;47.808;7.636;2023-07-08T18:03:17;28.40;99.90
21031;DHT22;61072;47.808;7.636;2023-07-08T18:05:44;28.40;99.90
21031;DHT22;61072;47.808;7.636;2023-07-08T18:08:11;28.30;99.90
21031;DHT22;61072;47.808;7.636;2023-07-08T18:10:37;28.30;99.90
21031;DHT22;61072;47.808;7.636;2023-07-08T18:13:16;28.20;99.90
21031;DHT22;61072;47.808;7.636;2023-07-08T18:15:43;28.20;99.90
21031;DHT22;61072;47.808;7.636;2023-07-08T18:18:12;28.10;99.90
21031;DHT22;61072;47.808;7.636;2023-07-08T18:20:42;28.10;99.90
21031;DHT22;61072;47.808;7.636;2023-07-08T18:23:17;28.10;99.90
21031;DHT22;61072;47.808;7.636;2023-07-08T18:25:44;28.00;99.90
21031;DHT22;61072;47.808;7.636;2023-07-08T18:28:11;28.00;99.90
21031;DHT22;61072;47.808;7.636;2023-07-08T18:30:41;27.90;99.90
21031;DHT22;61072;47.808;7.636;2023-07-08T18:33:14;27.90;99.90
21031;DHT22;61072;47.808;7.636;2023-07-08T18:35:41;27.80;99.90
21031;DHT22;61072;47.808;7.636;2023-07-08T18:38:09;27.80;99.90
21031;DHT22;61072;47.808;7.636;2023-07-08T18:40:39;27.70;99.90
21031;DHT22;61072;47.808;7.636;2023-07-08T18:43:26;27.70;99.90
21031;DHT22;61072;47.808;7.636;2023-07-08T18:45:56;27.60;99.90
21031;DHT22;61072;47.808;7.636;2023-07-08T18:48:23;27.50;99.90
21031;DHT22;61072;47.808;7.636;2023-07-08T18:50:54;27.40;99.90
21031;DHT22;61072;47.808;7.636;2023-07-08T18:53:22;27.40;99.90
21031;DHT22;61072;47.808;7.636;2023-07-08T18:55:50;27.30;99.90
21031;DHT22;61072;47.808;7.636;2023-07-08T18:58:18;27.30;99.90
21031;DHT22;61072;47.808;7.636;2023-07-08T19:00:47;27.20;99.90
21031;DHT22;61072;47.808;7.636;2023-07-08T19:03:25;27.10;99.90
21031;DHT22;61072;47.808;7.636;2023-07-08T19:05:53;27.10;99.90
21031;DHT22;61072;47.808;7.636;2023-07-08T19:08:21;27.00;99.90
21031;DHT22;61072;47.808;7.636;2023-07-08T19:10:51;26.90;99.90
21031;DHT22;61072;47.808;7.636;2023-07-08T19:13:22;26.80;99.90
21031;DHT22;61072;47.808;7.636;2023-07-08T19:15:51;26.80;99.90
21031;DHT22;61072;47.808;7.636;2023-07-08T19:18:21;26.70;99.90
21031;DHT22;61072;47.808;7.636;2023-07-08T19:20:49;26.60;99.90
21031;DHT22;61072;47.808;7.636;2023-07-08T19:23:22;26.60;99.90
21031;DHT22;61072;47.808;7.636;2023-07-08T19:25:49;26.50;99.90
21031;DHT22;61072;47.808;7.636;2023-07-08T19:28:16;26.40;99.90
21031;DHT22;61072;47.808;7.636;2023-07-08T19:30:47;26.30;99.90
21031;DHT22;61072;47.808;7.636;2023-07-08T19:33:17;26.30;99.90
21031;DHT22;61072;47.808;7.636;2023-07-08T19:35:45;26.20;99.90
21031;DHT22;61072;47.808;7.636;2023-07-08T19:38:15;26.20;99.90
21031;DHT22;61072;47.808;7.636;2023-07-08T19:40:50;26.10;99.90
21031;DHT22;61072;47.808;7.636;2023-07-08T19:43:21;26.10;99.90
21031;DHT22;61072;47.808;7.636;2023-07-08T19:45:48;26.00;99.90
21031;DHT22;61072;47.808;7.636;2023-07-08T19:48:15;25.90;99.90
21031;DHT22;61072;47.808;7.636;2023-07-08T19:50:42;25.90;99.90
21031;DHT22;61072;47.808;7.636;2023-07-08T19:53:10;25.80;99.90
21031;DHT22;61072;47.808;7.636;2023-07-08T19:55:39;25.70;99.90
21031;DHT22;61072;47.808;7.636;2023-07-08T19:58:10;25.70;99.90
21031;DHT22;61072;47.808;7.636;2023-07-08T20:00:38;25.60;99.90
21031;DHT22;61072;47.808;7.636;2023-07-08T20:03:05;25.60;99.90
21031;DHT22;61072;47.808;7.636;2023-07-08T20:05:34;25.50;99.90
21031;DHT22;61072;47.808;7.636;2023-07-08T20:10:40;25.50;99.90
21031;DHT22;61072;47.808;7.636;2023-07-08T20:13:10;25.40;99.90
21031;DHT22;61072;47.808;7.636;2023-07-08T20:15:37;25.40;99.90
21031;DHT22;61072;47.808;7.636;2023-07-08T20:18:09;25.30;99.90
21031;DHT22;61072;47.808;7.636;2023-07-08T20:20:37;25.30;99.90
21031;DHT22;61072;47.808;7.636;2023-07-08T20:23:04;25.20;99.90
21031;DHT22;61072;47.808;7.636;2023-07-08T20:25:31;25.20;99.90
21031;DHT22;61072;47.808;7.636;2023-07-08T20:27:58;25.10;99.90
21031;DHT22;61072;47.808;7.636;2023-07-08T20:30:26;25.10;99.90
21031;DHT22;61072;47.808;7.636;2023-07-08T20:32:55;25.10;99.90
21031;DHT22;61072;47.808;7.636;2023-07-08T20:35:24;25.00;99.90
21031;DHT22;61072;47.808;7.636;2023-07-08T20:37:52;25.00;99.90
21031;DHT22;61072;47.808;7.636;2023-07-08T20:40:25;25.00;99.90
21031;DHT22;61072;47.808;7.636;2023-07-08T20:42:52;24.90;99.90
21031;DHT22;61072;47.808;7.636;2023-07-08T20:45:27;24.90;99.90
21031;DHT22;61072;47.808;7.636;2023-07-08T20:47:55;24.80;99.90
21031;DHT22;61072;47.808;7.636;2023-07-08T20:50:24;24.80;99.90
21031;DHT22;61072;47.808;7.636;2023-07-08T20:52:52;24.80;99.90
21031;DHT22;61072;47.808;7.636;2023-07-08T20:55:20;24.80;99.90
21031;DHT22;61072;47.808;7.636;2023-07-08T20:57:49;24.70;99.90
21031;DHT22;61072;47.808;7.636;2023-07-08T21:00:28;24.70;99.90
21031;DHT22;61072;47.808;7.636;2023-07-08T21:02:56;24.70;99.90
21031;DHT22;61072;47.808;7.636;2023-07-08T21:05:25;24.70;99.90
21031;DHT22;61072;47.808;7.636;2023-07-08T21:07:55;24.60;99.90
21031;DHT22;61072;47.808;7.636;2023-07-08T21:10:24;24.60;99.90
21031;DHT22;61072;47.808;7.636;2023-07-08T21:12:52;24.60;99.90
21031;DHT22;61072;47.808;7.636;2023-07-08T21:15:23;24.60;99.90
21031;DHT22;61072;47.808;7.636;2023-07-08T21:17:50;24.50;99.90
21031;DHT22;61072;47.808;7.636;2023-07-08T21:20:19;24.50;99.90
21031;DHT22;61072;47.808;7.636;2023-07-08T21:22:48;24.50;99.90
21031;DHT22;61072;47.808;7.636;2023-07-08T21:25:16;24.50;99.90
21031;DHT22;61072;47.808;7.636;2023-07-08T21:27:44;24.50;99.90
21031;DHT22;61072;47.808;7.636;2023-07-08T21:30:20;24.40;99.90
21031;DHT22;61072;47.808;7.636;2023-07-08T21:32:50;24.40;99.90
21031;DHT22;61072;47.808;7.636;2023-07-08T21:35:17;24.40;99.90
21031;DHT22;61072;47.808;7.636;2023-07-08T21:37:50;24.40;99.90
21031;DHT22;61072;47.808;7.636;2023-07-08T21:40:37;24.40;99.90
21031;DHT22;61072;47.808;7.636;2023-07-08T21:43:06;24.40;99.90
21031;DHT22;61072;47.808;7.636;2023-07-08T21:45:37;24.30;99.90
21031;DHT22;61072;47.808;7.636;2023-07-08T21:48:05;24.30;99.90
21031;DHT22;61072;47.808;7.636;2023-07-08T21:53:17;24.30;99.90
21031;DHT22;61072;47.808;7.636;2023-07-08T21:55:47;24.20;99.90
21031;DHT22;61072;47.808;7.636;2023-07-08T21:58:14;24.20;99.90
21031;DHT22;61072;47.808;7.636;2023-07-08T22:00:42;24.30;99.90
21031;DHT22;61072;47.808;7.636;2023-07-08T22:03:20;24.20;99.90
21031;DHT22;61072;47.808;7.636;2023-07-08T22:05:47;24.20;99.90
21031;DHT22;61072;47.808;7.636;2023-07-08T22:08:19;24.20;99.90
21031;DHT22;61072;47.808;7.636;2023-07-08T22:10:51;24.10;99.90
21031;DHT22;61072;47.808;7.636;2023-07-08T22:16:00;24.10;99.90
21031;DHT22;61072;47.808;7.636;2023-07-08T22:18:28;24.10;99.90
21031;DHT22;61072;47.808;7.636;2023-07-08T22:21:00;24.10;99.90